HIDDEN DAM (HENSLEY) (HID)

Elevation: 561' · FRESNO R basin · Operator: US Army Corps of Engineers

Provisional data, subject to change.
Query executed Sunday at 1:01:32   clock

Select a sensor type for a plot of data.
Note: Reservoir Flows are daily averages.

Earlier

Date RES ELE    STORAGE    RES CHG    TOC STO    ABV TOC    OUTFLOW    INFLOW    PPT INC    TEMP MN    TEMP MX    WINDLEN    EVP PAN   
 FEET   AF   AF   AF   AF   CFS   CFS   INCHES   DEG F   DEG F   MILES   INCHES  
04/02/2016 505.06 43491 199 56066 -12575 0 107 0.00 12 27 90 0.22
04/03/2016 505.22 43667 176 57121 -13454 1 96 0.00 13 27 86 0.20
04/04/2016 505.38 43845 178 58163 -14318 1 97 0.00 11 25 90 0.21
04/05/2016 505.54 44022 177 59195 -15173 1 97 0.00 10 26 94 0.22
04/06/2016 505.68 44178 156 59935 -15766 1 87 0.01 14 30 101 0.23
04/07/2016 505.83 44345 167 60971 -16626 0 90 0.00 15 27 91 0.17
04/08/2016 505.98 44512 167 61470 -16958 0 89 0.18 14 23 93 0.14
04/09/2016 507.44 46157 1645 59476 -13319 0 833 1.80 14 19 75 0.10
04/10/2016 508.30 47141 984 60296 -13155 0 501 0.04 13 20 93 0.15
04/11/2016 508.72 47625 484 61103 -13478 0 250 0.00 12 23 80 0.17
04/12/2016 509.03 47983 358 62072 -14089 0 187 0.00 11 24 103 0.19
04/13/2016 509.30 48297 314 63155 -14858 0 165 0.01 9 22 101 0.21
04/14/2016 509.51 48542 245 64234 -15692 0 131 0.00 11 20 181 0.21
04/15/2016 509.72 48787 245 65240 -16453 0 131 0.01 6 22 160 0.22
04/16/2016 509.91 49009 222 66034 -17025 0 120 0.00 10 26 89 0.23
04/17/2016 510.10 49232 223 66832 -17600 0 122 0.00 12 32 106 0.29
04/18/2016 510.24 49397 165 67846 -18449 0 93 0.00 14 32 103 0.28
04/19/2016 510.40 49585 188 68877 -19292 0 104 0.00 15 32 104 0.27
04/20/2016 510.53 49739 154 69896 -20157 0 86 0.00 14 30 82 0.26
04/21/2016 510.67 49904 -- 70913 -21009 0 91 0.00 11 29 78 0.25
04/22/2016 510.80 50058 -- 71534 -- 0 83 0.18 11 23 112 0.15
04/23/2016 510.98 50271 -- 72323 -21824 0 114 0.02 7 21 107 0.21
04/24/2016 511.14 50461 190 73302 -22619 0 103 0.00 11 23 111 0.21
04/25/2016 511.26 50604 143 74297 -23693 0 80 0.00 7 19 141 0.22
04/26/2016 511.24 50580 -24 75055 -24475 79 75 0.00 8 23 100 0.22
04/27/2016 511.17 50497 -83 76003 -25506 118 83 0.00 8 22 107 0.19
04/28/2016 511.10 50414 -83 76977 -26563 116 80 0.00 7 22 74 0.19
04/29/2016 511.01 50307 -107 77697 -27390 116 71 0.00 12 26 116 0.25
04/30/2016 -- -- -- -- -- -- -- -- -- -- -- --
05/01/2016 -- -- -- -- -- -- -- -- -- -- -- --

Later | Latest

Warning! This data is preliminary and subject to revision.

Show HID Map | Plot HID Data | 1 Month HID Data | Real-Time HID Data | HID Info